sensor_id;sensor_type;location;lat;lon;timestamp;pressure;altitude;pressure_sealevel;temperature;humidity
5879;BME280;2965;42.640;23.370;2023-05-28T04:02:19;94259.66;;;15.85;nan
5879;BME280;2965;42.640;23.370;2023-05-28T04:04:44;94249.13;;;15.85;nan
5879;BME280;2965;42.640;23.370;2023-05-28T04:07:12;94245.56;;;15.92;nan
5879;BME280;2965;42.640;23.370;2023-05-28T04:09:37;94238.69;;;15.91;nan
5879;BME280;2965;42.640;23.370;2023-05-28T04:12:03;94249.94;;;15.98;nan
5879;BME280;2965;42.640;23.370;2023-05-28T04:14:28;94260.72;;;15.96;nan
5879;BME280;2965;42.640;23.370;2023-05-28T04:16:54;94263.59;;;15.95;nan
5879;BME280;2965;42.640;23.370;2023-05-28T04:19:19;94258.03;;;16.03;nan
5879;BME280;2965;42.640;23.370;2023-05-28T04:21:45;94265.47;;;16.06;nan
5879;BME280;2965;42.640;23.370;2023-05-28T04:24:10;94269.28;;;16.10;nan
5879;BME280;2965;42.640;23.370;2023-05-28T04:26:36;94269.72;;;16.07;nan
5879;BME280;2965;42.640;23.370;2023-05-28T04:29:02;94262.03;;;16.05;nan
5879;BME280;2965;42.640;23.370;2023-05-28T04:31:27;94269.66;;;16.13;nan
5879;BME280;2965;42.640;23.370;2023-05-28T04:33:53;94264.00;;;16.10;nan
5879;BME280;2965;42.640;23.370;2023-05-28T04:36:19;94265.41;;;16.12;nan
5879;BME280;2965;42.640;23.370;2023-05-28T04:38:45;94264.38;;;16.13;nan
5879;BME280;2965;42.640;23.370;2023-05-28T04:41:10;94261.97;;;16.12;nan
5879;BME280;2965;42.640;23.370;2023-05-28T04:43:39;94258.84;;;16.15;nan
5879;BME280;2965;42.640;23.370;2023-05-28T04:46:04;94262.84;;;16.06;nan
5879;BME280;2965;42.640;23.370;2023-05-28T04:48:31;94259.31;;;16.12;nan
5879;BME280;2965;42.640;23.370;2023-05-28T04:50:57;94257.38;;;16.19;nan
5879;BME280;2965;42.640;23.370;2023-05-28T04:53:22;94264.59;;;15.94;nan
5879;BME280;2965;42.640;23.370;2023-05-28T04:55:47;94263.63;;;16.06;nan
5879;BME280;2965;42.640;23.370;2023-05-28T04:58:13;94257.13;;;16.09;nan
5879;BME280;2965;42.640;23.370;2023-05-28T05:00:39;94257.56;;;16.06;nan
5879;BME280;2965;42.640;23.370;2023-05-28T05:03:04;94258.19;;;15.89;nan
5879;BME280;2965;42.640;23.370;2023-05-28T05:05:30;94243.47;;;15.82;nan
5879;BME280;2965;42.640;23.370;2023-05-28T05:07:55;94252.56;;;15.86;nan
5879;BME280;2965;42.640;23.370;2023-05-28T05:10:21;94253.25;;;15.93;nan
5879;BME280;2965;42.640;23.370;2023-05-28T05:12:46;94253.78;;;15.83;nan
5879;BME280;2965;42.640;23.370;2023-05-28T05:15:12;94254.53;;;15.91;nan
5879;BME280;2965;42.640;23.370;2023-05-28T05:17:37;94256.38;;;16.02;nan
5879;BME280;2965;42.640;23.370;2023-05-28T05:20:04;94254.63;;;16.14;nan
5879;BME280;2965;42.640;23.370;2023-05-28T05:22:32;94251.66;;;16.22;nan
5879;BME280;2965;42.640;23.370;2023-05-28T05:24:57;94252.41;;;16.29;nan
5879;BME280;2965;42.640;23.370;2023-05-28T05:27:23;94251.28;;;16.49;nan
5879;BME280;2965;42.640;23.370;2023-05-28T05:29:48;94250.97;;;16.57;nan
5879;BME280;2965;42.640;23.370;2023-05-28T05:32:14;94254.78;;;16.61;nan
5879;BME280;2965;42.640;23.370;2023-05-28T05:34:39;94271.63;;;16.60;nan
5879;BME280;2965;42.640;23.370;2023-05-28T05:37:06;94267.66;;;16.69;nan
5879;BME280;2965;42.640;23.370;2023-05-28T05:39:31;94268.97;;;16.60;nan
5879;BME280;2965;42.640;23.370;2023-05-28T05:41:56;94254.66;;;16.68;nan
5879;BME280;2965;42.640;23.370;2023-05-28T05:44:22;94260.09;;;16.73;nan
5879;BME280;2965;42.640;23.370;2023-05-28T05:46:47;94258.84;;;16.75;nan
5879;BME280;2965;42.640;23.370;2023-05-28T05:49:13;94256.38;;;16.62;nan
5879;BME280;2965;42.640;23.370;2023-05-28T05:51:39;94259.50;;;16.71;nan
5879;BME280;2965;42.640;23.370;2023-05-28T05:54:05;94257.72;;;16.53;nan
5879;BME280;2965;42.640;23.370;2023-05-28T05:56:30;94262.22;;;16.52;nan
5879;BME280;2965;42.640;23.370;2023-05-28T05:58:58;94272.78;;;16.52;nan
5879;BME280;2965;42.640;23.370;2023-05-28T06:01:24;94275.91;;;16.61;nan
5879;BME280;2965;42.640;23.370;2023-05-28T06:03:49;94263.53;;;16.73;nan
5879;BME280;2965;42.640;23.370;2023-05-28T06:06:14;94270.28;;;16.69;nan
5879;BME280;2965;42.640;23.370;2023-05-28T06:08:40;94265.72;;;16.76;nan
5879;BME280;2965;42.640;23.370;2023-05-28T06:11:06;94263.19;;;16.81;nan
5879;BME280;2965;42.640;23.370;2023-05-28T06:13:31;94266.66;;;16.82;nan
5879;BME280;2965;42.640;23.370;2023-05-28T06:15:57;94262.44;;;16.93;nan
5879;BME280;2965;42.640;23.370;2023-05-28T06:18:25;94262.66;;;17.03;nan
5879;BME280;2965;42.640;23.370;2023-05-28T06:20:50;94264.97;;;17.11;nan
5879;BME280;2965;42.640;23.370;2023-05-28T06:23:16;94273.59;;;17.18;nan
5879;BME280;2965;42.640;23.370;2023-05-28T06:25:41;94275.31;;;17.24;nan
5879;BME280;2965;42.640;23.370;2023-05-28T06:28:09;94276.00;;;17.31;nan
5879;BME280;2965;42.640;23.370;2023-05-28T06:30:34;94279.31;;;17.38;nan
5879;BME280;2965;42.640;23.370;2023-05-28T06:33:00;94271.84;;;17.12;nan
5879;BME280;2965;42.640;23.370;2023-05-28T06:35:26;94279.53;;;16.90;nan
5879;BME280;2965;42.640;23.370;2023-05-28T06:37:51;94278.28;;;16.93;nan
5879;BME280;2965;42.640;23.370;2023-05-28T06:40:16;94275.19;;;17.07;nan
5879;BME280;2965;42.640;23.370;2023-05-28T06:42:42;94277.84;;;17.19;nan
5879;BME280;2965;42.640;23.370;2023-05-28T06:45:07;94278.75;;;17.25;nan
5879;BME280;2965;42.640;23.370;2023-05-28T06:50:01;94281.97;;;17.38;nan
5879;BME280;2965;42.640;23.370;2023-05-28T06:52:26;94277.81;;;17.43;nan
5879;BME280;2965;42.640;23.370;2023-05-28T06:54:52;94282.91;;;17.32;nan
5879;BME280;2965;42.640;23.370;2023-05-28T06:57:18;94270.13;;;16.94;nan
5879;BME280;2965;42.640;23.370;2023-05-28T06:59:43;94283.69;;;16.56;nan
5879;BME280;2965;42.640;23.370;2023-05-28T07:02:08;94286.03;;;16.34;nan
5879;BME280;2965;42.640;23.370;2023-05-28T07:04:34;94281.56;;;16.34;nan
5879;BME280;2965;42.640;23.370;2023-05-28T07:06:59;94269.72;;;16.37;nan
5879;BME280;2965;42.640;23.370;2023-05-28T07:09:25;94272.59;;;16.35;nan
5879;BME280;2965;42.640;23.370;2023-05-28T07:11:51;94268.91;;;16.25;nan
5879;BME280;2965;42.640;23.370;2023-05-28T07:14:16;94265.53;;;16.48;nan
5879;BME280;2965;42.640;23.370;2023-05-28T07:16:41;94268.09;;;16.66;nan
5879;BME280;2965;42.640;23.370;2023-05-28T07:19:07;94262.63;;;16.79;nan
5879;BME280;2965;42.640;23.370;2023-05-28T07:21:32;94260.56;;;16.81;nan
5879;BME280;2965;42.640;23.370;2023-05-28T07:23:58;94260.13;;;17.08;nan
5879;BME280;2965;42.640;23.370;2023-05-28T07:26:24;94279.31;;;16.92;nan
5879;BME280;2965;42.640;23.370;2023-05-28T07:28:50;94294.44;;;16.84;nan
5879;BME280;2965;42.640;23.370;2023-05-28T07:31:15;94294.16;;;17.16;nan
5879;BME280;2965;42.640;23.370;2023-05-28T07:33:41;94290.22;;;17.07;nan
5879;BME280;2965;42.640;23.370;2023-05-28T07:36:06;94282.41;;;16.88;nan
5879;BME280;2965;42.640;23.370;2023-05-28T07:38:32;94294.34;;;17.03;nan
5879;BME280;2965;42.640;23.370;2023-05-28T07:40:57;94294.38;;;17.26;nan
5879;BME280;2965;42.640;23.370;2023-05-28T07:43:22;94290.47;;;17.17;nan
5879;BME280;2965;42.640;23.370;2023-05-28T07:45:48;94275.97;;;17.08;nan
5879;BME280;2965;42.640;23.370;2023-05-28T07:48:13;94277.38;;;17.22;nan
5879;BME280;2965;42.640;23.370;2023-05-28T07:50:39;94266.56;;;17.24;nan
5879;BME280;2965;42.640;23.370;2023-05-28T07:53:04;94265.19;;;17.21;nan
5879;BME280;2965;42.640;23.370;2023-05-28T07:55:31;94277.84;;;17.19;nan
5879;BME280;2965;42.640;23.370;2023-05-28T07:57:56;94278.28;;;17.16;nan
5879;BME280;2965;42.640;23.370;2023-05-28T08:00:24;94266.56;;;17.12;nan
5879;BME280;2965;42.640;23.370;2023-05-28T08:02:50;94259.00;;;17.27;nan
5879;BME280;2965;42.640;23.370;2023-05-28T08:05:15;94261.41;;;17.40;nan
5879;BME280;2965;42.640;23.370;2023-05-28T08:07:41;94270.59;;;17.14;nan
5879;BME280;2965;42.640;23.370;2023-05-28T08:10:07;94265.41;;;17.08;nan
5879;BME280;2965;42.640;23.370;2023-05-28T08:12:32;94273.56;;;16.95;nan
5879;BME280;2965;42.640;23.370;2023-05-28T08:14:57;94273.19;;;16.79;nan
5879;BME280;2965;42.640;23.370;2023-05-28T08:17:23;94263.16;;;16.70;nan
5879;BME280;2965;42.640;23.370;2023-05-28T08:19:49;94261.66;;;16.62;nan
5879;BME280;2965;42.640;23.370;2023-05-28T08:22:15;94260.22;;;16.78;nan
5879;BME280;2965;42.640;23.370;2023-05-28T08:24:41;94261.97;;;16.96;nan
5879;BME280;2965;42.640;23.370;2023-05-28T08:27:06;94260.47;;;17.35;nan
5879;BME280;2965;42.640;23.370;2023-05-28T08:29:32;94271.38;;;17.62;nan
5879;BME280;2965;42.640;23.370;2023-05-28T08:31:57;94282.31;;;17.77;nan
5879;BME280;2965;42.640;23.370;2023-05-28T08:34:24;94300.81;;;17.54;nan
5879;BME280;2965;42.640;23.370;2023-05-28T08:36:49;94285.16;;;17.64;nan
5879;BME280;2965;42.640;23.370;2023-05-28T08:39:15;94305.19;;;17.60;nan
5879;BME280;2965;42.640;23.370;2023-05-28T08:41:43;94293.09;;;17.87;nan
5879;BME280;2965;42.640;23.370;2023-05-28T08:44:08;94303.78;;;17.69;nan
5879;BME280;2965;42.640;23.370;2023-05-28T08:46:34;94290.69;;;17.62;nan
5879;BME280;2965;42.640;23.370;2023-05-28T08:49:00;94281.97;;;17.62;nan
5879;BME280;2965;42.640;23.370;2023-05-28T08:51:27;94293.00;;;17.59;nan
5879;BME280;2965;42.640;23.370;2023-05-28T08:53:54;94294.69;;;17.65;nan
5879;BME280;2965;42.640;23.370;2023-05-28T08:56:20;94308.03;;;17.70;nan
5879;BME280;2965;42.640;23.370;2023-05-28T08:58:46;94292.84;;;17.65;nan
5879;BME280;2965;42.640;23.370;2023-05-28T09:01:12;94291.38;;;17.81;nan
5879;BME280;2965;42.640;23.370;2023-05-28T09:03:39;94284.16;;;18.17;nan
5879;BME280;2965;42.640;23.370;2023-05-28T09:06:06;94284.91;;;18.58;nan
5879;BME280;2965;42.640;23.370;2023-05-28T09:08:32;94303.91;;;18.83;nan
5879;BME280;2965;42.640;23.370;2023-05-28T09:10:57;94296.16;;;19.27;nan
5879;BME280;2965;42.640;23.370;2023-05-28T09:13:23;94301.84;;;19.19;nan
5879;BME280;2965;42.640;23.370;2023-05-28T09:15:51;94302.81;;;19.13;nan
5879;BME280;2965;42.640;23.370;2023-05-28T09:18:20;94313.97;;;19.15;nan
5879;BME280;2965;42.640;23.370;2023-05-28T09:20:51;94297.50;;;18.79;nan
5879;BME280;2965;42.640;23.370;2023-05-28T09:23:17;94298.22;;;18.63;nan
5879;BME280;2965;42.640;23.370;2023-05-28T09:25:43;94298.94;;;18.70;nan
5879;BME280;2965;42.640;23.370;2023-05-28T09:28:12;94297.97;;;18.48;nan
5879;BME280;2965;42.640;23.370;2023-05-28T09:30:41;94309.41;;;18.36;nan
5879;BME280;2965;42.640;23.370;2023-05-28T09:33:08;94299.50;;;18.32;nan
5879;BME280;2965;42.640;23.370;2023-05-28T09:35:34;94304.19;;;18.41;nan
5879;BME280;2965;42.640;23.370;2023-05-28T09:38:10;94297.72;;;18.49;nan
5879;BME280;2965;42.640;23.370;2023-05-28T09:43:05;94305.50;;;18.39;nan
5879;BME280;2965;42.640;23.370;2023-05-28T09:45:32;94304.09;;;18.36;nan
5879;BME280;2965;42.640;23.370;2023-05-28T09:47:58;94301.84;;;18.28;nan
5879;BME280;2965;42.640;23.370;2023-05-28T09:50:24;94301.19;;;18.21;nan
5879;BME280;2965;42.640;23.370;2023-05-28T09:52:56;94313.78;;;18.02;nan
5879;BME280;2965;42.640;23.370;2023-05-28T09:55:24;94306.84;;;18.01;nan
5879;BME280;2965;42.640;23.370;2023-05-28T09:58:05;94307.09;;;18.00;nan
5879;BME280;2965;42.640;23.370;2023-05-28T10:00:43;94304.72;;;17.86;nan
5879;BME280;2965;42.640;23.370;2023-05-28T10:05:48;94307.25;;;17.81;nan
5879;BME280;2965;42.640;23.370;2023-05-28T10:08:16;94303.66;;;17.87;nan
5879;BME280;2965;42.640;23.370;2023-05-28T10:10:44;94317.13;;;17.98;nan
5879;BME280;2965;42.640;23.370;2023-05-28T10:13:15;94307.28;;;18.10;nan
5879;BME280;2965;42.640;23.370;2023-05-28T10:15:42;94311.16;;;17.90;nan
5879;BME280;2965;42.640;23.370;2023-05-28T10:18:08;94316.09;;;17.99;nan
5879;BME280;2965;42.640;23.370;2023-05-28T10:20:33;94313.78;;;18.02;nan
5879;BME280;2965;42.640;23.370;2023-05-28T10:23:00;94296.34;;;18.18;nan
5879;BME280;2965;42.640;23.370;2023-05-28T10:25:25;94301.69;;;18.06;nan
5879;BME280;2965;42.640;23.370;2023-05-28T10:27:58;94312.41;;;17.88;nan
5879;BME280;2965;42.640;23.370;2023-05-28T10:30:34;94314.84;;;17.89;nan
5879;BME280;2965;42.640;23.370;2023-05-28T10:33:11;94309.84;;;18.05;nan
5879;BME280;2965;42.640;23.370;2023-05-28T10:35:57;94302.59;;;18.12;nan
5879;BME280;2965;42.640;23.370;2023-05-28T10:38:24;94297.66;;;18.32;nan
5879;BME280;2965;42.640;23.370;2023-05-28T10:40:50;94294.59;;;18.24;nan
5879;BME280;2965;42.640;23.370;2023-05-28T10:43:45;94301.25;;;18.38;nan
5879;BME280;2965;42.640;23.370;2023-05-28T10:49:05;94311.53;;;18.80;nan
5879;BME280;2965;42.640;23.370;2023-05-28T10:51:51;94312.25;;;18.75;nan
5879;BME280;2965;42.640;23.370;2023-05-28T10:54:38;94299.97;;;18.69;nan
5879;BME280;2965;42.640;23.370;2023-05-28T10:57:12;94293.97;;;18.90;nan
5879;BME280;2965;42.640;23.370;2023-05-28T10:59:58;94302.72;;;19.08;nan
5879;BME280;2965;42.640;23.370;2023-05-28T11:02:26;94309.78;;;19.02;nan
5879;BME280;2965;42.640;23.370;2023-05-28T11:04:57;94312.31;;;19.09;nan
5879;BME280;2965;42.640;23.370;2023-05-28T11:07:33;94302.88;;;18.56;nan
5879;BME280;2965;42.640;23.370;2023-05-28T11:10:01;94299.09;;;18.52;nan
5879;BME280;2965;42.640;23.370;2023-05-28T11:12:29;94297.75;;;18.66;nan
5879;BME280;2965;42.640;23.370;2023-05-28T11:14:54;94303.59;;;18.80;nan
5879;BME280;2965;42.640;23.370;2023-05-28T11:17:20;94304.09;;;18.94;nan
5879;BME280;2965;42.640;23.370;2023-05-28T11:19:47;94294.78;;;19.08;nan
5879;BME280;2965;42.640;23.370;2023-05-28T11:22:13;94307.66;;;18.99;nan
5879;BME280;2965;42.640;23.370;2023-05-28T11:25:02;94299.19;;;18.85;nan
5879;BME280;2965;42.640;23.370;2023-05-28T11:27:30;94300.16;;;18.51;nan
5879;BME280;2965;42.640;23.370;2023-05-28T11:29:59;94299.19;;;18.57;nan
5879;BME280;2965;42.640;23.370;2023-05-28T11:32:26;94299.59;;;18.77;nan
5879;BME280;2965;42.640;23.370;2023-05-28T11:34:54;94289.47;;;18.74;nan
5879;BME280;2965;42.640;23.370;2023-05-28T11:39:52;94284.91;;;18.58;nan
5879;BME280;2965;42.640;23.370;2023-05-28T11:42:18;94296.63;;;18.62;nan
5879;BME280;2965;42.640;23.370;2023-05-28T11:44:45;94282.41;;;18.97;nan
5879;BME280;2965;42.640;23.370;2023-05-28T11:47:13;94280.66;;;19.19;nan
5879;BME280;2965;42.640;23.370;2023-05-28T11:49:40;94291.06;;;19.42;nan
5879;BME280;2965;42.640;23.370;2023-05-28T11:52:10;94294.28;;;19.45;nan
5879;BME280;2965;42.640;23.370;2023-05-28T11:54:36;94297.47;;;19.47;nan
5879;BME280;2965;42.640;23.370;2023-05-28T11:57:04;94308.28;;;19.23;nan
5879;BME280;2965;42.640;23.370;2023-05-28T11:59:31;94306.97;;;19.42;nan
5879;BME280;2965;42.640;23.370;2023-05-28T12:02:13;94304.06;;;19.78;nan
5879;BME280;2965;42.640;23.370;2023-05-28T12:04:39;94311.25;;;19.27;nan
5879;BME280;2965;42.640;23.370;2023-05-28T12:07:05;94302.06;;;19.34;nan
5879;BME280;2965;42.640;23.370;2023-05-28T12:09:30;94290.66;;;19.51;nan
5879;BME280;2965;42.640;23.370;2023-05-28T12:12:06;94296.81;;;19.56;nan
5879;BME280;2965;42.640;23.370;2023-05-28T12:14:34;94290.44;;;19.52;nan
5879;BME280;2965;42.640;23.370;2023-05-28T12:17:06;94298.59;;;19.51;nan
5879;BME280;2965;42.640;23.370;2023-05-28T12:19:33;94295.09;;;19.62;nan
5879;BME280;2965;42.640;23.370;2023-05-28T12:21:59;94297.88;;;19.72;nan
5879;BME280;2965;42.640;23.370;2023-05-28T12:24:27;94294.91;;;19.52;nan
5879;BME280;2965;42.640;23.370;2023-05-28T12:26:53;94296.88;;;19.23;nan
5879;BME280;2965;42.640;23.370;2023-05-28T12:29:18;94299.41;;;19.34;nan
5879;BME280;2965;42.640;23.370;2023-05-28T12:31:44;94285.75;;;19.42;nan
5879;BME280;2965;42.640;23.370;2023-05-28T12:34:09;94289.78;;;19.62;nan
5879;BME280;2965;42.640;23.370;2023-05-28T12:36:35;94304.41;;;19.64;nan
5879;BME280;2965;42.640;23.370;2023-05-28T12:39:01;94301.66;;;19.59;nan
5879;BME280;2965;42.640;23.370;2023-05-28T12:41:27;94303.44;;;19.37;nan
5879;BME280;2965;42.640;23.370;2023-05-28T12:43:52;94304.56;;;19.24;nan
5879;BME280;2965;42.640;23.370;2023-05-28T12:46:18;94283.53;;;19.18;nan
5879;BME280;2965;42.640;23.370;2023-05-28T12:48:43;94289.94;;;19.38;nan
5879;BME280;2965;42.640;23.370;2023-05-28T12:51:08;94295.09;;;19.45;nan
5879;BME280;2965;42.640;23.370;2023-05-28T12:53:34;94299.59;;;19.45;nan
5879;BME280;2965;42.640;23.370;2023-05-28T13:27:57;94227.84;;;19.73;nan
5879;BME280;2965;42.640;23.370;2023-05-28T13:30:23;94238.44;;;20.17;nan
5879;BME280;2965;42.640;23.370;2023-05-28T13:32:48;94251.66;;;20.12;nan
5879;BME280;2965;42.640;23.370;2023-05-28T13:35:15;94242.97;;;20.44;nan
5879;BME280;2965;42.640;23.370;2023-05-28T13:37:40;94242.59;;;20.57;nan
5879;BME280;2965;42.640;23.370;2023-05-28T13:40:06;94249.34;;;21.02;nan
5879;BME280;2965;42.640;23.370;2023-05-28T13:42:38;94250.59;;;21.69;nan
5879;BME280;2965;42.640;23.370;2023-05-28T13:45:05;94251.66;;;22.15;nan
5879;BME280;2965;42.640;23.370;2023-05-28T13:47:30;94269.53;;;21.72;nan
5879;BME280;2965;42.640;23.370;2023-05-28T13:49:56;94252.00;;;21.81;nan
5879;BME280;2965;42.640;23.370;2023-05-28T13:52:21;94265.28;;;21.71;nan
5879;BME280;2965;42.640;23.370;2023-05-28T13:54:48;94258.91;;;21.82;nan
5879;BME280;2965;42.640;23.370;2023-05-28T13:57:13;94246.25;;;22.05;nan
5879;BME280;2965;42.640;23.370;2023-05-28T13:59:38;94254.28;;;22.10;nan
5879;BME280;2965;42.640;23.370;2023-05-28T14:02:04;94248.78;;;22.42;nan
5879;BME280;2965;42.640;23.370;2023-05-28T14:04:29;94245.84;;;22.38;nan
5879;BME280;2965;42.640;23.370;2023-05-28T14:06:55;94249.41;;;21.91;nan
5879;BME280;2965;42.640;23.370;2023-05-28T14:09:20;94239.50;;;21.82;nan
5879;BME280;2965;42.640;23.370;2023-05-28T14:11:45;94246.13;;;21.74;nan
5879;BME280;2965;42.640;23.370;2023-05-28T14:14:12;94242.28;;;21.55;nan
5879;BME280;2965;42.640;23.370;2023-05-28T14:16:38;94237.41;;;21.41;nan
5879;BME280;2965;42.640;23.370;2023-05-28T14:19:04;94239.75;;;21.80;nan
5879;BME280;2965;42.640;23.370;2023-05-28T14:21:29;94229.44;;;21.94;nan
5879;BME280;2965;42.640;23.370;2023-05-28T14:23:54;94225.53;;;22.12;nan
5879;BME280;2965;42.640;23.370;2023-05-28T14:26:20;94228.53;;;21.73;nan
5879;BME280;2965;42.640;23.370;2023-05-28T14:28:45;94230.56;;;21.51;nan
5879;BME280;2965;42.640;23.370;2023-05-28T14:31:10;94229.06;;;21.65;nan
5879;BME280;2965;42.640;23.370;2023-05-28T14:33:36;94227.44;;;21.69;nan
5879;BME280;2965;42.640;23.370;2023-05-28T14:36:01;94231.63;;;21.55;nan
5879;BME280;2965;42.640;23.370;2023-05-28T14:38:27;94236.13;;;22.02;nan
5879;BME280;2965;42.640;23.370;2023-05-28T14:40:52;94225.94;;;22.82;nan
5879;BME280;2965;42.640;23.370;2023-05-28T14:43:18;94231.03;;;23.24;nan
5879;BME280;2965;42.640;23.370;2023-05-28T14:45:43;94221.41;;;22.92;nan
5879;BME280;2965;42.640;23.370;2023-05-28T14:48:09;94223.28;;;22.97;nan
5879;BME280;2965;42.640;23.370;2023-05-28T14:50:34;94219.78;;;22.86;nan
5879;BME280;2965;42.640;23.370;2023-05-28T14:53:00;94218.75;;;23.13;nan
5879;BME280;2965;42.640;23.370;2023-05-28T14:55:25;94214.94;;;23.55;nan
5879;BME280;2965;42.640;23.370;2023-05-28T14:57:50;94214.22;;;22.93;nan
5879;BME280;2965;42.640;23.370;2023-05-28T15:00:16;94204.84;;;22.70;nan
5879;BME280;2965;42.640;23.370;2023-05-28T15:02:42;94205.41;;;22.92;nan
5879;BME280;2965;42.640;23.370;2023-05-28T15:05:08;94203.81;;;22.91;nan
5879;BME280;2965;42.640;23.370;2023-05-28T15:07:34;94204.06;;;23.10;nan
5879;BME280;2965;42.640;23.370;2023-05-28T15:09:59;94212.25;;;23.55;nan
5879;BME280;2965;42.640;23.370;2023-05-28T15:12:25;94210.72;;;22.87;nan
5879;BME280;2965;42.640;23.370;2023-05-28T15:14:50;94201.13;;;22.51;nan
5879;BME280;2965;42.640;23.370;2023-05-28T15:17:16;94204.84;;;23.36;nan
5879;BME280;2965;42.640;23.370;2023-05-28T15:19:41;94208.53;;;23.56;nan
5879;BME280;2965;42.640;23.370;2023-05-28T15:22:07;94203.56;;;24.04;nan
5879;BME280;2965;42.640;23.370;2023-05-28T15:24:33;94202.84;;;23.88;nan
5879;BME280;2965;42.640;23.370;2023-05-28T17:04:26;94231.84;;;20.20;nan
5879;BME280;2965;42.640;23.370;2023-05-28T17:06:53;94237.31;;;20.13;nan
5879;BME280;2965;42.640;23.370;2023-05-28T17:09:20;94232.94;;;20.24;nan
5879;BME280;2965;42.640;23.370;2023-05-28T17:11:46;94235.66;;;20.29;nan
5879;BME280;2965;42.640;23.370;2023-05-28T17:14:12;94232.06;;;20.45;nan
5879;BME280;2965;42.640;23.370;2023-05-28T17:16:37;94234.19;;;20.43;nan
5879;BME280;2965;42.640;23.370;2023-05-28T17:19:03;94244.03;;;20.42;nan
5879;BME280;2965;42.640;23.370;2023-05-28T17:21:28;94240.25;;;20.38;nan
5879;BME280;2965;42.640;23.370;2023-05-28T17:23:54;94240.34;;;20.22;nan
5879;BME280;2965;42.640;23.370;2023-05-28T17:26:20;94234.94;;;20.38;nan
5879;BME280;2965;42.640;23.370;2023-05-28T17:28:46;94225.34;;;20.32;nan
5879;BME280;2965;42.640;23.370;2023-05-28T17:31:11;94223.25;;;20.39;nan
5879;BME280;2965;42.640;23.370;2023-05-28T17:33:39;94231.16;;;20.56;nan
5879;BME280;2965;42.640;23.370;2023-05-28T17:36:08;94229.03;;;20.85;nan
5879;BME280;2965;42.640;23.370;2023-05-28T17:38:33;94227.66;;;21.20;nan
5879;BME280;2965;42.640;23.370;2023-05-28T17:40:59;94229.06;;;21.70;nan
5879;BME280;2965;42.640;23.370;2023-05-28T17:43:24;94240.72;;;21.64;nan
5879;BME280;2965;42.640;23.370;2023-05-28T17:45:50;94248.16;;;21.57;nan
5879;BME280;2965;42.640;23.370;2023-05-28T17:48:22;94251.00;;;21.40;nan
5879;BME280;2965;42.640;23.370;2023-05-28T17:50:47;94252.25;;;21.32;nan
5879;BME280;2965;42.640;23.370;2023-05-28T17:53:16;94257.53;;;21.27;nan
5879;BME280;2965;42.640;23.370;2023-05-28T17:55:41;94267.88;;;21.29;nan
5879;BME280;2965;42.640;23.370;2023-05-28T17:58:07;94271.63;;;20.96;nan
5879;BME280;2965;42.640;23.370;2023-05-28T18:00:32;94259.41;;;20.95;nan
5879;BME280;2965;42.640;23.370;2023-05-28T18:02:58;94265.22;;;20.91;nan
5879;BME280;2965;42.640;23.370;2023-05-28T18:05:25;94263.59;;;20.85;nan
5879;BME280;2965;42.640;23.370;2023-05-28T18:07:52;94275.25;;;20.84;nan
5879;BME280;2965;42.640;23.370;2023-05-28T18:10:18;94268.31;;;20.78;nan
5879;BME280;2965;42.640;23.370;2023-05-28T18:12:43;94282.78;;;20.65;nan
5879;BME280;2965;42.640;23.370;2023-05-28T18:15:09;94288.25;;;20.54;nan
5879;BME280;2965;42.640;23.370;2023-05-28T18:17:36;94289.38;;;19.92;nan
5879;BME280;2965;42.640;23.370;2023-05-28T18:20:02;94281.78;;;19.23;nan
5879;BME280;2965;42.640;23.370;2023-05-28T18:22:30;94280.00;;;19.12;nan
5879;BME280;2965;42.640;23.370;2023-05-28T18:24:56;94289.47;;;19.08;nan
5879;BME280;2965;42.640;23.370;2023-05-28T18:27:21;94286.59;;;18.93;nan
5879;BME280;2965;42.640;23.370;2023-05-28T18:29:46;94291.66;;;18.77;nan
5879;BME280;2965;42.640;23.370;2023-05-28T18:32:12;94298.13;;;18.70;nan
5879;BME280;2965;42.640;23.370;2023-05-28T18:34:38;94296.91;;;18.49;nan
5879;BME280;2965;42.640;23.370;2023-05-28T18:37:03;94296.41;;;18.35;nan
5879;BME280;2965;42.640;23.370;2023-05-28T18:39:30;94291.25;;;18.28;nan
5879;BME280;2965;42.640;23.370;2023-05-28T18:41:55;94293.69;;;18.18;nan
5879;BME280;2965;42.640;23.370;2023-05-28T18:44:21;94288.78;;;18.10;nan
5879;BME280;2965;42.640;23.370;2023-05-28T18:46:46;94304.72;;;17.86;nan
5879;BME280;2965;42.640;23.370;2023-05-28T18:49:12;94307.03;;;17.71;nan
5879;BME280;2965;42.640;23.370;2023-05-28T18:51:37;94286.81;;;17.42;nan
5879;BME280;2965;42.640;23.370;2023-05-28T18:54:02;94282.66;;;17.46;nan
5879;BME280;2965;42.640;23.370;2023-05-28T18:56:28;94279.56;;;17.37;nan
5879;BME280;2965;42.640;23.370;2023-05-28T18:58:54;94286.44;;;17.38;nan
5879;BME280;2965;42.640;23.370;2023-05-28T19:01:21;94271.72;;;17.30;nan
5879;BME280;2965;42.640;23.370;2023-05-28T19:03:47;94278.88;;;17.30;nan
5879;BME280;2965;42.640;23.370;2023-05-28T19:06:14;94277.16;;;17.35;nan
5879;BME280;2965;42.640;23.370;2023-05-28T19:08:40;94279.91;;;17.29;nan
5879;BME280;2965;42.640;23.370;2023-05-28T19:11:06;94273.56;;;17.30;nan
5879;BME280;2965;42.640;23.370;2023-05-28T19:13:34;94285.31;;;17.22;nan
5879;BME280;2965;42.640;23.370;2023-05-28T19:15:59;94292.09;;;17.18;nan
5879;BME280;2965;42.640;23.370;2023-05-28T19:18:24;94287.25;;;17.15;nan
5879;BME280;2965;42.640;23.370;2023-05-28T19:20:50;94274.38;;;17.07;nan
5879;BME280;2965;42.640;23.370;2023-05-28T19:23:15;94278.63;;;17.08;nan
5879;BME280;2965;42.640;23.370;2023-05-28T19:25:41;94271.19;;;17.05;nan
5879;BME280;2965;42.640;23.370;2023-05-28T19:28:07;94271.63;;;17.02;nan
5879;BME280;2965;42.640;23.370;2023-05-28T19:30:33;94265.06;;;16.93;nan
